sensor_id;sensor_type;location;lat;lon;timestamp;temperature;humidity
49549;DHT22;35450;44.518;7.466;2023-11-21T00:10:16;9.90;99.90
49549;DHT22;35450;44.518;7.466;2023-11-21T00:13:24;10.00;99.90
49549;DHT22;35450;44.518;7.466;2023-11-21T00:16:28;10.00;99.90
49549;DHT22;35450;44.518;7.466;2023-11-21T00:19:33;10.00;99.90
49549;DHT22;35450;44.518;7.466;2023-11-21T00:22:38;10.10;99.90
49549;DHT22;35450;44.518;7.466;2023-11-21T00:25:42;10.10;99.90
49549;DHT22;35450;44.518;7.466;2023-11-21T00:28:46;10.10;99.90
49549;DHT22;35450;44.518;7.466;2023-11-21T00:31:50;10.00;99.90
49549;DHT22;35450;44.518;7.466;2023-11-21T00:53:26;10.00;99.90
49549;DHT22;35450;44.518;7.466;2023-11-21T00:56:33;10.10;99.90
49549;DHT22;35450;44.518;7.466;2023-11-21T00:59:37;10.00;99.90
49549;DHT22;35450;44.518;7.466;2023-11-21T01:02:41;9.80;99.90
49549;DHT22;35450;44.518;7.466;2023-11-21T01:05:47;9.70;99.90
49549;DHT22;35450;44.518;7.466;2023-11-21T01:08:53;9.80;99.90
49549;DHT22;35450;44.518;7.466;2023-11-21T01:11:57;9.80;99.90
49549;DHT22;35450;44.518;7.466;2023-11-21T01:15:03;9.90;99.90
49549;DHT22;35450;44.518;7.466;2023-11-21T01:18:08;9.90;99.90
49549;DHT22;35450;44.518;7.466;2023-11-21T01:21:12;10.00;99.90
49549;DHT22;35450;44.518;7.466;2023-11-21T01:24:16;10.00;99.90
49549;DHT22;35450;44.518;7.466;2023-11-21T01:27:21;10.00;99.90
49549;DHT22;35450;44.518;7.466;2023-11-21T01:30:25;10.00;99.90
49549;DHT22;35450;44.518;7.466;2023-11-21T01:33:29;10.10;99.90
49549;DHT22;35450;44.518;7.466;2023-11-21T01:36:33;10.20;99.90
49549;DHT22;35450;44.518;7.466;2023-11-21T01:39:37;10.10;99.90
49549;DHT22;35450;44.518;7.466;2023-11-21T01:42:43;10.10;99.90
49549;DHT22;35450;44.518;7.466;2023-11-21T01:45:47;10.00;99.90
49549;DHT22;35450;44.518;7.466;2023-11-21T01:48:52;9.90;99.90
49549;DHT22;35450;44.518;7.466;2023-11-21T01:51:57;9.80;99.90
49549;DHT22;35450;44.518;7.466;2023-11-21T01:55:03;9.80;99.90
49549;DHT22;35450;44.518;7.466;2023-11-21T01:58:09;9.80;99.90
49549;DHT22;35450;44.518;7.466;2023-11-21T02:01:13;9.80;99.90
49549;DHT22;35450;44.518;7.466;2023-11-21T02:04:18;9.80;99.90
49549;DHT22;35450;44.518;7.466;2023-11-21T02:07:22;9.80;99.90
49549;DHT22;35450;44.518;7.466;2023-11-21T02:10:28;9.90;99.90
49549;DHT22;35450;44.518;7.466;2023-11-21T02:13:33;9.90;99.90
49549;DHT22;35450;44.518;7.466;2023-11-21T02:16:37;10.00;99.90
49549;DHT22;35450;44.518;7.466;2023-11-21T02:19:41;10.00;99.90
49549;DHT22;35450;44.518;7.466;2023-11-21T02:22:56;10.00;99.90
49549;DHT22;35450;44.518;7.466;2023-11-21T02:26:03;9.90;99.90
49549;DHT22;35450;44.518;7.466;2023-11-21T02:29:07;9.90;99.90
49549;DHT22;35450;44.518;7.466;2023-11-21T02:32:15;9.90;99.90
49549;DHT22;35450;44.518;7.466;2023-11-21T02:35:20;9.90;99.90
49549;DHT22;35450;44.518;7.466;2023-11-21T02:38:24;9.90;99.90
49549;DHT22;35450;44.518;7.466;2023-11-21T02:41:29;10.00;99.90
49549;DHT22;35450;44.518;7.466;2023-11-21T02:44:33;9.90;99.90
49549;DHT22;35450;44.518;7.466;2023-11-21T02:47:37;10.00;99.90
49549;DHT22;35450;44.518;7.466;2023-11-21T02:50:41;10.00;99.90
49549;DHT22;35450;44.518;7.466;2023-11-21T02:53:46;10.00;99.90
49549;DHT22;35450;44.518;7.466;2023-11-21T02:56:50;10.00;99.90
49549;DHT22;35450;44.518;7.466;2023-11-21T02:59:54;10.10;99.90
49549;DHT22;35450;44.518;7.466;2023-11-21T03:02:58;10.10;99.90
49549;DHT22;35450;44.518;7.466;2023-11-21T03:06:03;10.20;99.90
49549;DHT22;35450;44.518;7.466;2023-11-21T03:09:08;10.10;99.90
49549;DHT22;35450;44.518;7.466;2023-11-21T03:12:12;10.20;99.90
49549;DHT22;35450;44.518;7.466;2023-11-21T03:15:16;10.20;99.90
49549;DHT22;35450;44.518;7.466;2023-11-21T03:18:21;10.20;99.90
49549;DHT22;35450;44.518;7.466;2023-11-21T03:21:26;10.10;99.90
49549;DHT22;35450;44.518;7.466;2023-11-21T03:24:30;10.00;99.90
49549;DHT22;35450;44.518;7.466;2023-11-21T03:27:34;10.00;99.90
49549;DHT22;35450;44.518;7.466;2023-11-21T03:30:38;10.00;99.90
49549;DHT22;35450;44.518;7.466;2023-11-21T03:33:42;10.00;99.90
49549;DHT22;35450;44.518;7.466;2023-11-21T03:36:45;10.10;99.90
49549;DHT22;35450;44.518;7.466;2023-11-21T03:39:51;10.10;99.90
49549;DHT22;35450;44.518;7.466;2023-11-21T03:42:55;10.10;99.90
49549;DHT22;35450;44.518;7.466;2023-11-21T03:45:59;10.10;99.90
49549;DHT22;35450;44.518;7.466;2023-11-21T03:49:03;10.10;99.90
49549;DHT22;35450;44.518;7.466;2023-11-21T03:52:07;10.10;99.90
49549;DHT22;35450;44.518;7.466;2023-11-21T03:55:11;10.10;99.90
49549;DHT22;35450;44.518;7.466;2023-11-21T03:58:18;10.00;99.90
49549;DHT22;35450;44.518;7.466;2023-11-21T04:01:22;10.10;99.90
49549;DHT22;35450;44.518;7.466;2023-11-21T04:04:26;10.10;99.90
49549;DHT22;35450;44.518;7.466;2023-11-21T04:07:30;10.00;99.90
49549;DHT22;35450;44.518;7.466;2023-11-21T04:10:34;10.00;99.90
49549;DHT22;35450;44.518;7.466;2023-11-21T04:13:39;9.90;99.90
49549;DHT22;35450;44.518;7.466;2023-11-21T04:16:44;10.00;99.90
49549;DHT22;35450;44.518;7.466;2023-11-21T04:19:48;10.10;99.90
49549;DHT22;35450;44.518;7.466;2023-11-21T04:22:52;10.10;99.90
49549;DHT22;35450;44.518;7.466;2023-11-21T04:25:56;10.10;99.90
49549;DHT22;35450;44.518;7.466;2023-11-21T04:29:00;10.00;99.90
49549;DHT22;35450;44.518;7.466;2023-11-21T04:32:05;10.00;99.90
49549;DHT22;35450;44.518;7.466;2023-11-21T04:35:09;9.90;99.90
49549;DHT22;35450;44.518;7.466;2023-11-21T04:38:13;10.00;99.90
49549;DHT22;35450;44.518;7.466;2023-11-21T04:41:17;9.90;99.90
49549;DHT22;35450;44.518;7.466;2023-11-21T04:44:21;10.00;99.90
49549;DHT22;35450;44.518;7.466;2023-11-21T04:47:25;10.00;99.90
49549;DHT22;35450;44.518;7.466;2023-11-21T04:50:29;10.10;99.90
49549;DHT22;35450;44.518;7.466;2023-11-21T04:53:33;10.00;99.90
49549;DHT22;35450;44.518;7.466;2023-11-21T04:56:38;9.80;99.90
49549;DHT22;35450;44.518;7.466;2023-11-21T04:59:43;9.80;99.90
49549;DHT22;35450;44.518;7.466;2023-11-21T05:02:47;9.80;99.90
49549;DHT22;35450;44.518;7.466;2023-11-21T05:05:51;9.90;99.90
49549;DHT22;35450;44.518;7.466;2023-11-21T05:08:55;9.90;99.90
49549;DHT22;35450;44.518;7.466;2023-11-21T05:11:59;10.00;99.90
49549;DHT22;35450;44.518;7.466;2023-11-21T05:15:07;10.00;99.90
49549;DHT22;35450;44.518;7.466;2023-11-21T05:18:14;10.00;99.90
49549;DHT22;35450;44.518;7.466;2023-11-21T05:21:18;9.90;99.90
49549;DHT22;35450;44.518;7.466;2023-11-21T05:24:24;9.90;99.90
49549;DHT22;35450;44.518;7.466;2023-11-21T05:27:28;9.90;99.90
49549;DHT22;35450;44.518;7.466;2023-11-21T05:30:33;9.80;99.90
49549;DHT22;35450;44.518;7.466;2023-11-21T05:33:38;9.90;99.90
49549;DHT22;35450;44.518;7.466;2023-11-21T05:36:45;10.00;99.90
49549;DHT22;35450;44.518;7.466;2023-11-21T05:39:50;10.00;99.90
49549;DHT22;35450;44.518;7.466;2023-11-21T05:42:54;9.80;99.90
49549;DHT22;35450;44.518;7.466;2023-11-21T05:45:59;9.70;99.90
49549;DHT22;35450;44.518;7.466;2023-11-21T05:49:03;9.60;99.90
49549;DHT22;35450;44.518;7.466;2023-11-21T05:52:08;9.70;99.90
49549;DHT22;35450;44.518;7.466;2023-11-21T05:55:12;9.70;99.90
49549;DHT22;35450;44.518;7.466;2023-11-21T05:58:16;9.70;99.90
49549;DHT22;35450;44.518;7.466;2023-11-21T06:01:20;9.80;99.90
49549;DHT22;35450;44.518;7.466;2023-11-21T06:04:24;9.80;99.90
49549;DHT22;35450;44.518;7.466;2023-11-21T06:07:28;9.80;99.90
49549;DHT22;35450;44.518;7.466;2023-11-21T06:10:33;9.80;99.90
49549;DHT22;35450;44.518;7.466;2023-11-21T06:13:38;9.70;99.90
49549;DHT22;35450;44.518;7.466;2023-11-21T06:16:42;9.70;99.90
49549;DHT22;35450;44.518;7.466;2023-11-21T06:19:46;9.70;99.90
49549;DHT22;35450;44.518;7.466;2023-11-21T06:22:51;9.80;99.90
49549;DHT22;35450;44.518;7.466;2023-11-21T06:25:55;9.80;99.90
49549;DHT22;35450;44.518;7.466;2023-11-21T06:28:59;9.70;99.90
49549;DHT22;35450;44.518;7.466;2023-11-21T06:32:05;9.80;99.90
49549;DHT22;35450;44.518;7.466;2023-11-21T06:35:10;9.80;99.90
49549;DHT22;35450;44.518;7.466;2023-11-21T06:38:14;9.70;99.90
49549;DHT22;35450;44.518;7.466;2023-11-21T06:41:18;9.70;99.90
49549;DHT22;35450;44.518;7.466;2023-11-21T06:44:22;9.60;99.90
49549;DHT22;35450;44.518;7.466;2023-11-21T06:47:27;9.70;99.90
49549;DHT22;35450;44.518;7.466;2023-11-21T06:50:33;9.80;99.90
49549;DHT22;35450;44.518;7.466;2023-11-21T06:53:37;9.80;99.90
49549;DHT22;35450;44.518;7.466;2023-11-21T06:56:42;9.80;99.90
49549;DHT22;35450;44.518;7.466;2023-11-21T06:59:46;9.70;99.90
49549;DHT22;35450;44.518;7.466;2023-11-21T07:02:50;9.60;99.90
49549;DHT22;35450;44.518;7.466;2023-11-21T07:05:53;9.60;99.90
49549;DHT22;35450;44.518;7.466;2023-11-21T07:08:57;9.50;99.90
49549;DHT22;35450;44.518;7.466;2023-11-21T07:12:02;9.40;99.90
49549;DHT22;35450;44.518;7.466;2023-11-21T07:15:08;9.40;99.90
49549;DHT22;35450;44.518;7.466;2023-11-21T07:18:13;9.40;99.90
49549;DHT22;35450;44.518;7.466;2023-11-21T07:21:17;9.50;99.90
49549;DHT22;35450;44.518;7.466;2023-11-21T07:24:22;9.50;99.90
49549;DHT22;35450;44.518;7.466;2023-11-21T07:27:29;9.30;99.90
49549;DHT22;35450;44.518;7.466;2023-11-21T07:30:33;9.30;99.90
49549;DHT22;35450;44.518;7.466;2023-11-21T07:33:37;9.20;99.90
49549;DHT22;35450;44.518;7.466;2023-11-21T07:36:41;9.30;99.90
49549;DHT22;35450;44.518;7.466;2023-11-21T07:39:45;9.40;99.90
49549;DHT22;35450;44.518;7.466;2023-11-21T07:42:50;9.30;99.90
49549;DHT22;35450;44.518;7.466;2023-11-21T07:45:54;9.30;99.90
49549;DHT22;35450;44.518;7.466;2023-11-21T07:48:59;9.40;99.90
49549;DHT22;35450;44.518;7.466;2023-11-21T07:52:03;9.40;99.90
49549;DHT22;35450;44.518;7.466;2023-11-21T07:55:07;9.60;99.90
49549;DHT22;35450;44.518;7.466;2023-11-21T07:58:11;9.60;99.90
49549;DHT22;35450;44.518;7.466;2023-11-21T08:01:16;9.80;99.90
49549;DHT22;35450;44.518;7.466;2023-11-21T08:04:21;9.80;99.90
49549;DHT22;35450;44.518;7.466;2023-11-21T08:07:25;9.90;99.90
49549;DHT22;35450;44.518;7.466;2023-11-21T08:10:29;9.90;99.90
49549;DHT22;35450;44.518;7.466;2023-11-21T08:13:34;9.90;99.90
49549;DHT22;35450;44.518;7.466;2023-11-21T08:16:38;10.00;99.90
49549;DHT22;35450;44.518;7.466;2023-11-21T08:19:43;10.10;99.90
49549;DHT22;35450;44.518;7.466;2023-11-21T08:22:47;10.10;99.90
49549;DHT22;35450;44.518;7.466;2023-11-21T08:25:53;10.20;99.90
49549;DHT22;35450;44.518;7.466;2023-11-21T08:28:57;10.20;99.90
49549;DHT22;35450;44.518;7.466;2023-11-21T08:32:02;10.20;99.90
49549;DHT22;35450;44.518;7.466;2023-11-21T08:35:07;10.20;99.90
49549;DHT22;35450;44.518;7.466;2023-11-21T08:38:12;10.20;99.90
49549;DHT22;35450;44.518;7.466;2023-11-21T08:41:16;10.30;99.90
49549;DHT22;35450;44.518;7.466;2023-11-21T08:44:20;10.30;99.90
49549;DHT22;35450;44.518;7.466;2023-11-21T08:47:25;10.20;99.90
49549;DHT22;35450;44.518;7.466;2023-11-21T08:50:30;10.30;99.90
49549;DHT22;35450;44.518;7.466;2023-11-21T08:53:34;10.40;99.90
49549;DHT22;35450;44.518;7.466;2023-11-21T08:56:38;10.40;99.90
49549;DHT22;35450;44.518;7.466;2023-11-21T08:59:42;10.40;99.90
49549;DHT22;35450;44.518;7.466;2023-11-21T09:02:46;10.40;99.90
49549;DHT22;35450;44.518;7.466;2023-11-21T09:05:51;10.50;99.90
49549;DHT22;35450;44.518;7.466;2023-11-21T09:08:55;10.50;99.90
49549;DHT22;35450;44.518;7.466;2023-11-21T09:11:59;10.60;99.90
49549;DHT22;35450;44.518;7.466;2023-11-21T09:15:06;10.50;99.90
49549;DHT22;35450;44.518;7.466;2023-11-21T09:18:10;10.40;99.90
49549;DHT22;35450;44.518;7.466;2023-11-21T09:21:14;10.30;99.90
49549;DHT22;35450;44.518;7.466;2023-11-21T09:24:19;10.10;99.90
49549;DHT22;35450;44.518;7.466;2023-11-21T09:27:23;10.10;99.90
49549;DHT22;35450;44.518;7.466;2023-11-21T09:30:27;10.20;99.90
49549;DHT22;35450;44.518;7.466;2023-11-21T09:33:31;10.30;99.90
49549;DHT22;35450;44.518;7.466;2023-11-21T09:36:35;10.40;99.90
49549;DHT22;35450;44.518;7.466;2023-11-21T09:39:43;10.40;99.90
49549;DHT22;35450;44.518;7.466;2023-11-21T09:42:55;10.50;99.90
49549;DHT22;35450;44.518;7.466;2023-11-21T09:46:06;10.50;99.90
49549;DHT22;35450;44.518;7.466;2023-11-21T09:49:20;10.40;99.90
49549;DHT22;35450;44.518;7.466;2023-11-21T09:52:37;10.40;99.90
49549;DHT22;35450;44.518;7.466;2023-11-21T09:55:55;10.50;99.90
49549;DHT22;35450;44.518;7.466;2023-11-21T09:59:03;10.60;99.90
49549;DHT22;35450;44.518;7.466;2023-11-21T10:02:10;10.60;99.90
49549;DHT22;35450;44.518;7.466;2023-11-21T10:05:17;10.50;99.90
49549;DHT22;35450;44.518;7.466;2023-11-21T10:08:22;10.50;99.90
49549;DHT22;35450;44.518;7.466;2023-11-21T10:11:29;10.60;99.90
49549;DHT22;35450;44.518;7.466;2023-11-21T10:14:36;10.60;99.90
49549;DHT22;35450;44.518;7.466;2023-11-21T10:17:41;10.70;99.90
49549;DHT22;35450;44.518;7.466;2023-11-21T10:20:49;10.70;99.90
49549;DHT22;35450;44.518;7.466;2023-11-21T10:23:56;10.70;99.90
49549;DHT22;35450;44.518;7.466;2023-11-21T10:27:01;10.80;99.90
49549;DHT22;35450;44.518;7.466;2023-11-21T10:30:10;10.90;99.90
49549;DHT22;35450;44.518;7.466;2023-11-21T10:33:18;10.90;99.90
49549;DHT22;35450;44.518;7.466;2023-11-21T10:36:30;11.00;99.90
49549;DHT22;35450;44.518;7.466;2023-11-21T10:39:35;10.90;99.90
49549;DHT22;35450;44.518;7.466;2023-11-21T10:42:40;11.00;99.90
49549;DHT22;35450;44.518;7.466;2023-11-21T10:45:44;11.00;99.90
49549;DHT22;35450;44.518;7.466;2023-11-21T10:48:52;11.00;99.90
49549;DHT22;35450;44.518;7.466;2023-11-21T10:51:58;11.00;99.90
49549;DHT22;35450;44.518;7.466;2023-11-21T10:55:05;11.00;99.90
49549;DHT22;35450;44.518;7.466;2023-11-21T10:58:20;11.00;99.90
49549;DHT22;35450;44.518;7.466;2023-11-21T11:01:26;11.00;99.90
49549;DHT22;35450;44.518;7.466;2023-11-21T11:04:34;10.90;99.90
49549;DHT22;35450;44.518;7.466;2023-11-21T11:07:43;10.90;99.90
49549;DHT22;35450;44.518;7.466;2023-11-21T11:10:50;11.00;99.90
49549;DHT22;35450;44.518;7.466;2023-11-21T11:13:55;11.00;99.90
49549;DHT22;35450;44.518;7.466;2023-11-21T11:17:01;11.10;99.90
49549;DHT22;35450;44.518;7.466;2023-11-21T11:20:06;11.00;99.90
49549;DHT22;35450;44.518;7.466;2023-11-21T11:23:35;11.00;99.90
49549;DHT22;35450;44.518;7.466;2023-11-21T11:34:30;11.10;99.90
49549;DHT22;35450;44.518;7.466;2023-11-21T11:37:35;11.20;99.90
49549;DHT22;35450;44.518;7.466;2023-11-21T11:40:40;11.20;99.90
49549;DHT22;35450;44.518;7.466;2023-11-21T11:43:45;11.20;99.90
49549;DHT22;35450;44.518;7.466;2023-11-21T11:46:53;11.20;99.90
49549;DHT22;35450;44.518;7.466;2023-11-21T11:50:04;11.20;99.90
49549;DHT22;35450;44.518;7.466;2023-11-21T11:53:15;11.30;99.90
49549;DHT22;35450;44.518;7.466;2023-11-21T11:56:33;11.30;99.90
49549;DHT22;35450;44.518;7.466;2023-11-21T12:03:19;11.20;99.90
49549;DHT22;35450;44.518;7.466;2023-11-21T12:06:35;11.30;99.90
49549;DHT22;35450;44.518;7.466;2023-11-21T12:09:39;11.40;99.90
49549;DHT22;35450;44.518;7.466;2023-11-21T12:12:52;11.40;99.90
49549;DHT22;35450;44.518;7.466;2023-11-21T12:15:56;11.40;99.90
49549;DHT22;35450;44.518;7.466;2023-11-21T12:19:00;11.40;99.90
49549;DHT22;35450;44.518;7.466;2023-11-21T12:22:05;11.40;99.90
49549;DHT22;35450;44.518;7.466;2023-11-21T12:25:08;11.50;99.90
49549;DHT22;35450;44.518;7.466;2023-11-21T12:28:12;11.50;99.90
49549;DHT22;35450;44.518;7.466;2023-11-21T12:31:17;11.50;99.90
49549;DHT22;35450;44.518;7.466;2023-11-21T12:34:21;11.60;99.90
49549;DHT22;35450;44.518;7.466;2023-11-21T12:37:27;11.60;99.90
49549;DHT22;35450;44.518;7.466;2023-11-21T12:40:32;11.60;99.90
49549;DHT22;35450;44.518;7.466;2023-11-21T12:43:36;11.60;99.90
49549;DHT22;35450;44.518;7.466;2023-11-21T12:46:43;11.60;99.90
49549;DHT22;35450;44.518;7.466;2023-11-21T12:49:49;11.60;99.90
49549;DHT22;35450;44.518;7.466;2023-11-21T12:52:53;11.60;99.90
49549;DHT22;35450;44.518;7.466;2023-11-21T12:55:59;11.70;99.90
49549;DHT22;35450;44.518;7.466;2023-11-21T12:59:04;11.70;99.90
49549;DHT22;35450;44.518;7.466;2023-11-21T13:02:08;11.70;99.90
49549;DHT22;35450;44.518;7.466;2023-11-21T13:05:13;11.80;99.90
49549;DHT22;35450;44.518;7.466;2023-11-21T13:08:26;11.80;99.90
49549;DHT22;35450;44.518;7.466;2023-11-21T13:11:33;11.90;99.90
49549;DHT22;35450;44.518;7.466;2023-11-21T13:14:40;11.90;99.90
49549;DHT22;35450;44.518;7.466;2023-11-21T13:17:45;11.90;99.90
49549;DHT22;35450;44.518;7.466;2023-11-21T13:20:50;11.90;99.90
49549;DHT22;35450;44.518;7.466;2023-11-21T13:23:54;11.90;99.90
49549;DHT22;35450;44.518;7.466;2023-11-21T13:26:58;11.90;99.90
49549;DHT22;35450;44.518;7.466;2023-11-21T13:30:04;11.90;99.90
49549;DHT22;35450;44.518;7.466;2023-11-21T13:33:08;12.00;99.90
49549;DHT22;35450;44.518;7.466;2023-11-21T13:36:13;12.00;99.90
49549;DHT22;35450;44.518;7.466;2023-11-21T13:39:19;12.00;99.90
49549;DHT22;35450;44.518;7.466;2023-11-21T13:42:25;12.00;99.90
49549;DHT22;35450;44.518;7.466;2023-11-21T13:45:31;12.10;99.90
49549;DHT22;35450;44.518;7.466;2023-11-21T13:48:36;12.10;99.90
49549;DHT22;35450;44.518;7.466;2023-11-21T13:51:54;12.10;99.90
49549;DHT22;35450;44.518;7.466;2023-11-21T13:54:58;12.10;99.90
49549;DHT22;35450;44.518;7.466;2023-11-21T13:58:05;12.20;99.90
49549;DHT22;35450;44.518;7.466;2023-11-21T14:01:13;12.20;99.90
49549;DHT22;35450;44.518;7.466;2023-11-21T14:04:36;12.20;99.90
49549;DHT22;35450;44.518;7.466;2023-11-21T14:07:53;12.30;99.90
49549;DHT22;35450;44.518;7.466;2023-11-21T14:10:59;12.30;99.90
49549;DHT22;35450;44.518;7.466;2023-11-21T14:14:03;12.30;99.90
49549;DHT22;35450;44.518;7.466;2023-11-21T14:17:09;12.30;99.90
49549;DHT22;35450;44.518;7.466;2023-11-21T14:20:14;12.40;99.90
49549;DHT22;35450;44.518;7.466;2023-11-21T14:23:19;12.40;99.90
49549;DHT22;35450;44.518;7.466;2023-11-21T14:26:25;12.30;99.90
49549;DHT22;35450;44.518;7.466;2023-11-21T14:29:29;12.30;99.90
49549;DHT22;35450;44.518;7.466;2023-11-21T14:32:34;12.30;99.90
49549;DHT22;35450;44.518;7.466;2023-11-21T14:35:39;12.40;99.90
49549;DHT22;35450;44.518;7.466;2023-11-21T14:38:43;12.40;99.90
49549;DHT22;35450;44.518;7.466;2023-11-21T14:41:47;12.50;99.90
49549;DHT22;35450;44.518;7.466;2023-11-21T14:44:51;12.50;99.90
49549;DHT22;35450;44.518;7.466;2023-11-21T14:47:56;12.50;99.90
49549;DHT22;35450;44.518;7.466;2023-11-21T14:51:20;12.60;99.90
49549;DHT22;35450;44.518;7.466;2023-11-21T14:54:50;12.50;99.90
49549;DHT22;35450;44.518;7.466;2023-11-21T14:58:03;12.60;99.90
49549;DHT22;35450;44.518;7.466;2023-11-21T15:01:08;12.60;99.90
49549;DHT22;35450;44.518;7.466;2023-11-21T15:04:14;12.50;99.90
49549;DHT22;35450;44.518;7.466;2023-11-21T15:07:27;12.50;99.90
49549;DHT22;35450;44.518;7.466;2023-11-21T15:10:33;12.40;99.90
49549;DHT22;35450;44.518;7.466;2023-11-21T15:13:49;12.40;99.90
49549;DHT22;35450;44.518;7.466;2023-11-21T15:16:55;12.30;99.90
49549;DHT22;35450;44.518;7.466;2023-11-21T15:20:03;12.30;99.90
49549;DHT22;35450;44.518;7.466;2023-11-21T15:23:10;12.30;99.90
49549;DHT22;35450;44.518;7.466;2023-11-21T15:26:16;12.30;99.90
49549;DHT22;35450;44.518;7.466;2023-11-21T15:29:20;12.30;99.90
49549;DHT22;35450;44.518;7.466;2023-11-21T15:32:25;12.30;99.90
49549;DHT22;35450;44.518;7.466;2023-11-21T15:35:30;12.20;99.90
49549;DHT22;35450;44.518;7.466;2023-11-21T15:38:35;12.20;99.90
49549;DHT22;35450;44.518;7.466;2023-11-21T15:41:41;12.20;99.90
49549;DHT22;35450;44.518;7.466;2023-11-21T15:44:46;12.20;99.90
49549;DHT22;35450;44.518;7.466;2023-11-21T15:47:50;12.20;99.90
49549;DHT22;35450;44.518;7.466;2023-11-21T15:50:54;12.20;99.90
49549;DHT22;35450;44.518;7.466;2023-11-21T15:54:01;12.00;99.90
49549;DHT22;35450;44.518;7.466;2023-11-21T15:57:05;12.00;99.90
49549;DHT22;35450;44.518;7.466;2023-11-21T16:00:12;11.90;99.90
49549;DHT22;35450;44.518;7.466;2023-11-21T16:03:20;11.90;99.90
49549;DHT22;35450;44.518;7.466;2023-11-21T16:06:26;11.90;99.90
49549;DHT22;35450;44.518;7.466;2023-11-21T16:09:31;11.90;99.90
49549;DHT22;35450;44.518;7.466;2023-11-21T16:12:37;11.90;99.90
49549;DHT22;35450;44.518;7.466;2023-11-21T16:15:44;11.90;99.90
49549;DHT22;35450;44.518;7.466;2023-11-21T16:18:48;11.90;99.90
49549;DHT22;35450;44.518;7.466;2023-11-21T16:21:52;11.80;99.90
49549;DHT22;35450;44.518;7.466;2023-11-21T16:24:56;11.80;99.90
49549;DHT22;35450;44.518;7.466;2023-11-21T16:28:00;11.80;99.90
49549;DHT22;35450;44.518;7.466;2023-11-21T16:31:08;11.70;99.90
49549;DHT22;35450;44.518;7.466;2023-11-21T16:34:14;11.70;99.90
49549;DHT22;35450;44.518;7.466;2023-11-21T16:37:18;11.60;99.90
49549;DHT22;35450;44.518;7.466;2023-11-21T16:40:22;11.60;99.90
49549;DHT22;35450;44.518;7.466;2023-11-21T16:43:26;11.60;99.90
49549;DHT22;35450;44.518;7.466;2023-11-21T16:46:30;11.50;99.90
49549;DHT22;35450;44.518;7.466;2023-11-21T16:49:35;11.50;99.90
49549;DHT22;35450;44.518;7.466;2023-11-21T16:52:41;11.40;99.90
49549;DHT22;35450;44.518;7.466;2023-11-21T16:55:45;11.40;99.90
49549;DHT22;35450;44.518;7.466;2023-11-21T16:58:49;11.40;99.90
49549;DHT22;35450;44.518;7.466;2023-11-21T17:01:54;11.40;99.90
49549;DHT22;35450;44.518;7.466;2023-11-21T17:04:58;11.50;99.90
49549;DHT22;35450;44.518;7.466;2023-11-21T17:08:02;11.50;99.90
49549;DHT22;35450;44.518;7.466;2023-11-21T17:11:06;11.50;99.90
49549;DHT22;35450;44.518;7.466;2023-11-21T17:14:17;11.40;99.90
49549;DHT22;35450;44.518;7.466;2023-11-21T17:17:22;11.40;99.90
49549;DHT22;35450;44.518;7.466;2023-11-21T17:20:26;11.40;99.90
49549;DHT22;35450;44.518;7.466;2023-11-21T17:23:30;11.40;99.90
49549;DHT22;35450;44.518;7.466;2023-11-21T17:26:35;11.30;99.90
49549;DHT22;35450;44.518;7.466;2023-11-21T17:29:39;11.20;99.90
49549;DHT22;35450;44.518;7.466;2023-11-21T17:32:43;11.30;99.90
49549;DHT22;35450;44.518;7.466;2023-11-21T17:35:48;11.40;99.90
49549;DHT22;35450;44.518;7.466;2023-11-21T17:38:52;11.40;99.90
49549;DHT22;35450;44.518;7.466;2023-11-21T17:41:57;11.40;99.90
49549;DHT22;35450;44.518;7.466;2023-11-21T17:45:02;11.30;99.90
49549;DHT22;35450;44.518;7.466;2023-11-21T17:48:06;11.40;99.90
49549;DHT22;35450;44.518;7.466;2023-11-21T17:51:10;11.30;99.90
49549;DHT22;35450;44.518;7.466;2023-11-21T17:54:15;11.20;99.90
49549;DHT22;35450;44.518;7.466;2023-11-21T17:57:20;11.10;99.90
49549;DHT22;35450;44.518;7.466;2023-11-21T18:00:24;11.00;99.90
49549;DHT22;35450;44.518;7.466;2023-11-21T18:03:29;10.90;99.90
49549;DHT22;35450;44.518;7.466;2023-11-21T18:06:33;11.00;99.90
49549;DHT22;35450;44.518;7.466;2023-11-21T18:09:37;11.10;99.90
49549;DHT22;35450;44.518;7.466;2023-11-21T18:12:43;11.20;99.90
49549;DHT22;35450;44.518;7.466;2023-11-21T18:15:47;11.20;99.90
49549;DHT22;35450;44.518;7.466;2023-11-21T18:18:51;11.20;99.90
49549;DHT22;35450;44.518;7.466;2023-11-21T18:21:56;11.20;99.90
49549;DHT22;35450;44.518;7.466;2023-11-21T18:25:00;11.10;99.90
49549;DHT22;35450;44.518;7.466;2023-11-21T18:28:04;11.10;99.90
49549;DHT22;35450;44.518;7.466;2023-11-21T18:31:08;11.20;99.90
49549;DHT22;35450;44.518;7.466;2023-11-21T18:34:12;11.10;99.90
49549;DHT22;35450;44.518;7.466;2023-11-21T18:37:16;11.10;99.90
